createdAt,value
2022-12-19T00:00:08.160Z,47.67
2022-12-19T00:02:41.253Z,26.98
2022-12-19T00:05:08.723Z,42.10
2022-12-19T00:07:35.733Z,60.78
2022-12-19T00:10:02.900Z,47.60
2022-12-19T00:12:30.191Z,57.90
2022-12-19T00:14:57.310Z,46.42
2022-12-19T00:17:25.862Z,49.42
2022-12-19T00:19:52.886Z,56.67
2022-12-19T00:22:20.211Z,36.33
2022-12-19T00:24:48.467Z,50.60
2022-12-19T00:27:15.857Z,37.03
2022-12-19T00:29:42.968Z,57.58
2022-12-19T00:32:10.104Z,43.33
2022-12-19T00:34:42.177Z,52.28
2022-12-19T00:37:09.218Z,36.70
2022-12-19T00:39:36.270Z,44.50
2022-12-19T00:42:03.457Z,54.08
2022-12-19T00:44:30.503Z,22.05
2022-12-19T00:46:58.907Z,43.00
2022-12-19T00:49:26.080Z,47.25
2022-12-19T00:51:53.253Z,45.60
2022-12-19T00:54:20.416Z,52.17
2022-12-19T00:56:48.358Z,43.17
2022-12-19T00:59:15.501Z,49.50
2022-12-19T01:01:46.121Z,44.63
2022-12-19T01:04:34.376Z,37.92
2022-12-19T01:07:03.315Z,37.85
2022-12-19T01:09:36.309Z,43.38
2022-12-19T01:12:24.900Z,41.80
2022-12-19T01:15:03.968Z,42.65
2022-12-19T01:17:43.560Z,38.13
2022-12-19T01:20:18.200Z,50.67
2022-12-19T01:22:50.783Z,48.72
2022-12-19T01:25:18.762Z,42.65
2022-12-19T01:27:45.908Z,47.95
2022-12-19T01:30:13.534Z,41.45
2022-12-19T01:32:40.988Z,45.70
2022-12-19T01:35:09.861Z,43.25
2022-12-19T01:37:48.206Z,43.40
2022-12-19T01:40:16.863Z,40.63
2022-12-19T01:42:44.145Z,44.25
2022-12-19T01:45:13.844Z,46.30
2022-12-19T01:48:20.293Z,49.10
2022-12-19T01:51:07.328Z,55.58
2022-12-19T01:54:01.455Z,34.90
2022-12-19T01:56:38.206Z,43.25
2022-12-19T01:59:14.128Z,40.10
2022-12-19T02:01:56.693Z,36.15
2022-12-19T02:04:32.495Z,51.00
2022-12-19T02:07:15.314Z,35.38
2022-12-19T02:09:50.540Z,42.08
2022-12-19T02:12:33.472Z,37.70
2022-12-19T02:15:03.274Z,35.00
2022-12-19T02:18:09.402Z,39.75
2022-12-19T02:21:15.433Z,43.05
2022-12-19T02:24:09.569Z,41.03
2022-12-19T02:27:06.090Z,38.63
2022-12-19T02:30:03.271Z,37.30
2022-12-19T02:32:57.854Z,38.33
2022-12-19T02:35:56.592Z,31.20
2022-12-19T02:38:53.822Z,35.00
2022-12-19T02:41:45.294Z,39.95
2022-12-19T02:44:30.603Z,35.95
2022-12-19T02:47:01.438Z,40.60
2022-12-19T02:49:32.275Z,39.75
2022-12-19T02:52:21.522Z,39.55
2022-12-19T02:54:58.471Z,27.38
2022-12-19T02:57:53.675Z,32.20
2022-12-19T03:00:25.756Z,31.58
2022-12-19T03:03:30.475Z,38.13
2022-12-19T03:06:41.838Z,28.25
2022-12-19T03:09:18.220Z,42.63
2022-12-19T03:11:51.161Z,37.17
2022-12-19T03:14:21.428Z,32.78
2022-12-19T03:16:49.522Z,27.50
2022-12-19T03:19:17.108Z,28.75
2022-12-19T03:21:47.926Z,36.88
2022-12-19T03:24:17.361Z,31.65
2022-12-19T03:26:50.399Z,43.08
2022-12-19T03:29:51.006Z,31.75
2022-12-19T03:32:20.348Z,38.65
2022-12-19T03:35:06.868Z,33.75
2022-12-19T03:37:40.050Z,37.03
2022-12-19T03:40:17.410Z,31.63
2022-12-19T03:43:06.764Z,21.48
2022-12-19T03:45:56.719Z,25.73
2022-12-19T03:48:47.543Z,36.95
2022-12-19T03:51:42.637Z,30.25
2022-12-19T03:54:28.795Z,34.78
2022-12-19T03:57:17.881Z,41.08
2022-12-19T03:59:49.527Z,36.50
2022-12-19T04:02:21.589Z,36.00
2022-12-19T04:04:56.208Z,26.17
2022-12-19T04:07:25.433Z,28.45
2022-12-19T04:09:55.669Z,32.30
2022-12-19T04:12:31.810Z,30.75
2022-12-19T04:15:02.324Z,31.65
2022-12-19T04:18:08.135Z,33.70
2022-12-19T04:20:45.056Z,33.53
2022-12-19T04:23:25.302Z,35.17
2022-12-19T04:26:01.829Z,30.05
2022-12-19T04:28:49.455Z,27.27
2022-12-19T04:31:18.096Z,30.60
2022-12-19T04:33:45.480Z,31.05
2022-12-19T04:36:12.831Z,32.78
2022-12-19T04:38:40.072Z,38.35
2022-12-19T04:41:07.306Z,29.92
2022-12-19T04:43:34.722Z,33.47
2022-12-19T04:46:01.972Z,34.05
2022-12-19T04:48:29.107Z,42.30
2022-12-19T04:50:56.771Z,33.65
2022-12-19T04:53:24.223Z,42.22
2022-12-19T04:55:51.448Z,29.67
2022-12-19T04:58:21.831Z,39.17
2022-12-19T05:00:49.423Z,29.27
2022-12-19T05:03:17.781Z,41.95
2022-12-19T05:05:44.973Z,45.28
2022-12-19T05:08:12.093Z,39.20
2022-12-19T05:10:39.726Z,42.67
2022-12-19T05:13:07.910Z,35.03
2022-12-19T05:15:35.185Z,43.10
2022-12-19T05:18:10.340Z,40.10
2022-12-19T05:20:37.927Z,35.38
2022-12-19T05:23:08.520Z,45.17
2022-12-19T05:25:40.600Z,35.90
2022-12-19T05:28:07.921Z,33.90
2022-12-19T05:30:35.049Z,40.13
2022-12-19T05:33:02.195Z,39.45
2022-12-19T05:35:29.343Z,38.05
2022-12-19T05:37:56.476Z,35.50
2022-12-19T05:40:23.672Z,42.00
2022-12-19T05:42:50.793Z,41.47
2022-12-19T05:45:18.331Z,48.00
2022-12-19T05:47:46.834Z,45.80
2022-12-19T05:50:18.121Z,43.17
2022-12-19T05:52:51.913Z,43.60
2022-12-19T05:55:19.158Z,38.72
2022-12-19T05:57:46.361Z,47.33
2022-12-19T06:00:14.424Z,46.75
2022-12-19T06:05:38.004Z,26.40
2022-12-19T06:08:05.875Z,37.08
2022-12-19T06:10:33.909Z,29.35
2022-12-19T06:13:01.254Z,38.25
2022-12-19T06:15:28.879Z,38.88
2022-12-19T06:17:56.112Z,47.90
2022-12-19T06:20:23.333Z,49.97
2022-12-19T06:22:50.415Z,43.00
2022-12-19T06:25:17.507Z,34.60
2022-12-19T06:27:44.647Z,40.15
2022-12-19T06:30:12.517Z,40.22
2022-12-19T06:32:39.618Z,27.20
2022-12-19T06:35:07.744Z,41.50
2022-12-19T06:37:37.826Z,51.03
2022-12-19T06:40:07.539Z,49.42
2022-12-19T06:42:34.614Z,40.72
2022-12-19T06:45:01.709Z,31.08
2022-12-19T06:47:28.828Z,39.60
2022-12-19T06:49:56.046Z,43.67
2022-12-19T06:52:23.075Z,48.40
2022-12-19T06:54:50.293Z,49.72
2022-12-19T06:57:17.397Z,49.80
2022-12-19T06:59:44.445Z,45.50
2022-12-19T07:02:28.565Z,54.88
2022-12-19T07:05:02.951Z,44.83
2022-12-19T07:07:30.543Z,36.25
2022-12-19T07:09:57.762Z,49.00
2022-12-19T07:12:24.944Z,49.58
2022-12-19T07:14:53.678Z,50.05
2022-12-19T07:17:25.612Z,46.28
2022-12-19T07:19:58.203Z,49.70
2022-12-19T07:22:33.081Z,50.60
2022-12-19T07:25:02.586Z,46.28
2022-12-19T07:27:35.444Z,49.88
2022-12-19T07:30:06.492Z,51.45
2022-12-19T07:32:34.112Z,49.22
2022-12-19T07:35:01.221Z,61.35
2022-12-19T07:37:28.477Z,41.88
2022-12-19T07:39:55.547Z,53.83
2022-12-19T07:42:22.710Z,53.88
2022-12-19T07:44:50.611Z,49.25
2022-12-19T07:47:17.624Z,49.47
2022-12-19T07:49:44.734Z,51.70
2022-12-19T07:52:11.862Z,43.72
2022-12-19T07:54:38.838Z,32.45
2022-12-19T07:57:05.938Z,56.22
2022-12-19T07:59:38.658Z,48.47
2022-12-19T08:02:06.947Z,53.08
2022-12-19T08:04:35.175Z,43.80
2022-12-19T08:07:02.569Z,46.58
2022-12-19T08:09:30.202Z,49.75
2022-12-19T08:11:58.958Z,53.65
2022-12-19T08:14:25.932Z,53.97
2022-12-19T08:17:19.745Z,52.90
2022-12-19T08:19:40.173Z,43.05
2022-12-19T08:22:07.678Z,43.10
2022-12-19T08:24:34.873Z,49.00
2022-12-19T08:27:01.979Z,42.17
2022-12-19T08:29:29.450Z,44.45
2022-12-19T08:31:56.748Z,51.45
2022-12-19T08:34:24.167Z,43.60
2022-12-19T08:36:51.380Z,42.22
2022-12-19T08:39:18.481Z,55.10
2022-12-19T08:41:45.550Z,38.85
2022-12-19T08:44:13.316Z,47.22
2022-12-19T08:46:44.997Z,45.65
2022-12-19T08:49:15.368Z,46.03
2022-12-19T08:51:42.357Z,44.40
2022-12-19T08:54:11.698Z,43.15
2022-12-19T08:56:42.168Z,48.60
2022-12-19T08:59:13.670Z,48.10
2022-12-19T09:01:43.293Z,50.65
2022-12-19T09:05:18.793Z,42.38
2022-12-19T09:06:57.910Z,45.40
2022-12-19T09:09:25.031Z,47.55
2022-12-19T09:11:52.160Z,42.30
2022-12-19T09:14:20.993Z,40.55
2022-12-19T09:16:48.916Z,49.38
2022-12-19T09:19:16.843Z,45.72
2022-12-19T09:21:44.443Z,48.03
2022-12-19T09:24:11.619Z,50.28
2022-12-19T09:26:39.443Z,53.50
2022-12-19T09:29:20.523Z,50.75
2022-12-19T09:31:55.749Z,33.47
2022-12-19T09:34:37.986Z,53.35
2022-12-19T09:37:08.630Z,46.45
2022-12-19T09:39:36.361Z,53.20
2022-12-19T09:42:25.267Z,55.45
2022-12-19T09:45:25.911Z,52.88
2022-12-19T09:48:01.423Z,55.22
2022-12-19T09:50:42.430Z,53.05
2022-12-19T09:53:31.729Z,44.35
2022-12-19T09:56:02.717Z,54.22
2022-12-19T09:58:44.957Z,52.85
2022-12-19T10:02:11.130Z,58.47
2022-12-19T10:04:51.763Z,54.25
2022-12-19T10:07:49.837Z,46.70
2022-12-19T10:12:35.573Z,52.15
2022-12-19T10:13:59.434Z,36.83
2022-12-19T10:17:23.566Z,56.97
2022-12-19T10:20:29.455Z,50.45
2022-12-19T10:23:13.453Z,56.08
2022-12-19T10:26:00.146Z,54.75
2022-12-19T10:28:48.679Z,38.60
2022-12-19T10:31:45.153Z,50.58
2022-12-19T10:34:40.826Z,57.85
2022-12-19T10:37:47.442Z,41.05
2022-12-19T10:40:38.747Z,48.28
2022-12-19T10:43:33.691Z,43.83
2022-12-19T10:46:15.895Z,42.08
2022-12-19T10:48:43.178Z,47.08
2022-12-19T10:51:19.111Z,51.65
2022-12-19T10:53:55.699Z,50.22
2022-12-19T10:56:34.943Z,50.05
2022-12-19T10:59:16.592Z,41.87
2022-12-19T11:01:44.590Z,41.90
2022-12-19T11:04:36.238Z,51.25
2022-12-19T11:07:03.776Z,43.47
2022-12-19T11:09:38.354Z,51.72
2022-12-19T11:15:53.701Z,48.88
2022-12-19T11:19:23.974Z,51.33
2022-12-19T11:28:04.849Z,48.83
2022-12-19T11:29:18.341Z,46.25
2022-12-19T11:30:42.998Z,45.85
2022-12-19T11:30:48.001Z,49.00
2022-12-19T11:32:45.434Z,44.08
2022-12-19T11:35:36.608Z,44.25
2022-12-19T11:38:08.402Z,44.67
2022-12-19T11:40:51.720Z,48.85
2022-12-19T11:43:46.912Z,50.85
2022-12-19T11:46:40.617Z,49.88
2022-12-19T11:49:34.661Z,59.85
2022-12-19T11:53:02.871Z,47.63
2022-12-19T11:55:42.179Z,35.83
2022-12-19T11:58:11.741Z,52.42
2022-12-19T12:01:26.497Z,53.65
2022-12-19T12:04:16.403Z,49.38
2022-12-19T12:06:53.156Z,50.47
2022-12-19T12:13:04.195Z,49.65
2022-12-19T12:25:02.731Z,48.15
2022-12-19T12:30:34.853Z,55.72
2022-12-19T12:31:07.300Z,50.90
2022-12-19T12:31:43.907Z,52.08
2022-12-19T12:31:48.345Z,55.17
2022-12-19T12:32:00.733Z,55.75
2022-12-19T12:35:38.052Z,60.67
2022-12-19T12:39:47.199Z,52.22
2022-12-19T12:42:58.943Z,61.00
2022-12-19T12:45:38.221Z,50.33
2022-12-19T12:48:36.258Z,54.50
2022-12-19T12:51:05.554Z,46.67
2022-12-19T12:53:38.346Z,42.85
2022-12-19T12:56:10.810Z,36.58
2022-12-19T13:01:29.476Z,44.30
2022-12-19T13:04:19.927Z,55.67
2022-12-19T13:06:50.459Z,37.95
2022-12-19T13:09:24.051Z,53.20
2022-12-19T13:12:48.362Z,53.28
2022-12-19T13:15:41.745Z,54.75
2022-12-19T13:18:34.145Z,57.95
2022-12-19T13:21:04.965Z,49.55
2022-12-19T13:23:47.555Z,51.25
2022-12-19T13:26:49.574Z,51.95
2022-12-19T13:30:03.899Z,54.67
2022-12-19T13:32:53.730Z,45.85
2022-12-19T13:36:39.669Z,50.25
2022-12-19T13:39:58.050Z,47.53
2022-12-19T13:41:59.796Z,55.33
2022-12-19T13:44:27.947Z,52.88
2022-12-19T13:46:56.261Z,55.53
2022-12-19T13:49:38.431Z,51.92
2022-12-19T13:52:10.288Z,52.58
2022-12-19T13:54:51.255Z,56.03
2022-12-19T13:57:29.926Z,51.10
2022-12-19T14:00:09.889Z,61.53
2022-12-19T14:02:49.140Z,48.10
2022-12-19T14:06:15.335Z,59.95
2022-12-19T14:08:25.135Z,58.03
2022-12-19T14:11:48.696Z,51.90
2022-12-19T14:14:33.843Z,59.45
2022-12-19T14:17:14.337Z,59.75
2022-12-19T14:19:49.843Z,58.72
2022-12-19T14:22:24.839Z,63.95
2022-12-19T14:26:06.577Z,73.53
2022-12-19T14:28:18.107Z,51.63
2022-12-19T14:30:57.552Z,72.65
2022-12-19T14:33:46.086Z,59.42
2022-12-19T14:36:28.141Z,66.35
2022-12-19T14:39:24.645Z,66.03
2022-12-19T14:42:11.461Z,57.38
2022-12-19T14:52:08.010Z,73.68
2022-12-19T14:53:36.574Z,60.40
2022-12-19T14:54:05.918Z,64.43
2022-12-19T14:54:26.179Z,62.60
2022-12-19T14:56:58.049Z,52.53
2022-12-19T14:59:35.852Z,51.42
2022-12-19T15:02:06.278Z,59.75
2022-12-19T15:04:51.192Z,54.13
2022-12-19T15:11:04.351Z,63.72
2022-12-19T15:14:57.241Z,70.65
2022-12-19T15:16:31.398Z,68.60
2022-12-19T15:19:03.403Z,64.80
2022-12-19T15:21:34.072Z,58.05
2022-12-19T15:24:01.244Z,62.88
2022-12-19T15:26:33.760Z,61.90
2022-12-19T15:29:02.107Z,67.32
2022-12-19T15:31:42.167Z,72.70
2022-12-19T15:34:37.288Z,57.33
2022-12-19T15:38:11.638Z,64.15
2022-12-19T15:40:49.318Z,62.67
2022-12-19T15:44:02.424Z,68.75
2022-12-19T15:46:36.017Z,52.72
2022-12-19T15:49:13.578Z,62.28
2022-12-19T15:51:58.041Z,65.40
2022-12-19T15:55:15.016Z,62.83
2022-12-19T15:58:38.387Z,64.00
2022-12-19T16:01:22.267Z,64.57
2022-12-19T16:04:04.152Z,55.30
2022-12-19T16:06:31.591Z,42.25
2022-12-19T16:08:59.658Z,64.85
2022-12-19T16:11:27.495Z,62.30
2022-12-19T16:13:58.813Z,56.88
2022-12-19T16:16:26.184Z,60.63
2022-12-19T16:18:53.264Z,34.67
2022-12-19T16:21:31.654Z,55.97
2022-12-19T16:24:06.596Z,64.78
2022-12-19T16:26:58.087Z,49.30
2022-12-19T16:29:31.306Z,53.25
2022-12-19T16:32:01.834Z,60.10
2022-12-19T16:34:29.276Z,58.90
2022-12-19T16:37:04.709Z,59.70
2022-12-19T16:39:32.021Z,52.42
2022-12-19T16:42:04.188Z,59.72
2022-12-19T16:47:02.483Z,49.72
2022-12-19T16:49:31.036Z,51.20
2022-12-19T16:52:01.862Z,51.80
2022-12-19T16:54:30.230Z,48.92
2022-12-19T16:57:00.248Z,51.08
2022-12-19T16:59:47.028Z,52.47
2022-12-19T17:02:43.903Z,60.47
2022-12-19T17:05:29.724Z,52.58
2022-12-19T17:08:05.505Z,53.17
2022-12-19T17:10:33.853Z,52.60
2022-12-19T17:13:03.535Z,53.60
2022-12-19T17:15:37.376Z,57.75
2022-12-19T17:18:21.514Z,55.13
2022-12-19T17:20:50.918Z,50.42
2022-12-19T17:23:24.220Z,46.58
2022-12-19T17:26:23.705Z,48.45
2022-12-19T17:28:51.288Z,44.72
2022-12-19T17:31:28.731Z,50.03
2022-12-19T17:33:58.445Z,49.50
2022-12-19T17:36:37.083Z,54.08
2022-12-19T17:39:22.977Z,48.72
2022-12-19T17:41:51.693Z,50.58
2022-12-19T17:44:18.796Z,43.58
2022-12-19T17:46:47.562Z,48.67
2022-12-19T17:49:29.658Z,33.63
2022-12-19T17:51:59.502Z,47.80
2022-12-19T17:54:27.372Z,47.08
2022-12-19T17:56:55.585Z,53.58
2022-12-19T17:59:22.866Z,53.60
2022-12-19T18:01:50.143Z,55.42
2022-12-19T18:04:20.804Z,52.47
2022-12-19T18:06:49.316Z,52.28
2022-12-19T18:09:21.562Z,48.65
2022-12-19T18:11:51.048Z,50.60
2022-12-19T18:14:19.261Z,50.25
2022-12-19T18:16:49.339Z,46.13
2022-12-19T18:19:24.663Z,48.53
2022-12-19T18:21:51.989Z,49.08
2022-12-19T18:24:19.298Z,53.15
2022-12-19T18:26:46.840Z,48.90
2022-12-19T18:29:14.820Z,54.63
2022-12-19T18:31:50.138Z,61.13
2022-12-19T18:34:25.378Z,54.72
2022-12-19T18:36:53.543Z,49.33
2022-12-19T18:39:27.479Z,48.92
2022-12-19T18:41:55.504Z,54.65
2022-12-19T18:44:23.383Z,53.47
2022-12-19T18:46:52.211Z,50.75
2022-12-19T18:49:19.953Z,47.47
2022-12-19T18:51:48.908Z,47.65
2022-12-19T18:54:20.540Z,53.22
2022-12-19T18:56:48.101Z,55.90
2022-12-19T18:59:15.409Z,52.00
2022-12-19T19:01:46.710Z,44.67
2022-12-19T19:04:18.013Z,48.30
2022-12-19T19:06:51.544Z,44.80
2022-12-19T19:09:21.876Z,54.92
2022-12-19T19:12:11.843Z,49.22
2022-12-19T19:14:39.399Z,53.72
2022-12-19T19:17:18.095Z,50.30
2022-12-19T19:19:45.391Z,53.92
2022-12-19T19:22:12.420Z,55.20
2022-12-19T19:24:39.519Z,52.08
2022-12-19T19:27:07.004Z,56.15
2022-12-19T19:29:34.214Z,54.05
2022-12-19T19:32:01.930Z,61.05
2022-12-19T19:34:35.253Z,47.97
2022-12-19T19:37:05.974Z,48.67
2022-12-19T19:39:35.059Z,54.58
2022-12-19T19:42:02.890Z,59.13
2022-12-19T19:44:30.285Z,59.65
2022-12-19T19:46:57.748Z,49.65
2022-12-19T19:49:25.255Z,54.92
2022-12-19T19:51:58.493Z,57.58
2022-12-19T19:54:29.583Z,53.67
2022-12-19T19:56:56.792Z,43.33
2022-12-19T19:59:23.842Z,59.53
2022-12-19T20:01:54.148Z,51.42
2022-12-19T20:04:21.960Z,52.17
2022-12-19T20:06:49.090Z,55.33
2022-12-19T20:09:16.159Z,49.58
2022-12-19T20:11:43.405Z,44.03
2022-12-19T20:14:10.632Z,53.35
2022-12-19T20:16:37.775Z,51.22
2022-12-19T20:19:04.923Z,45.65
2022-12-19T20:21:33.269Z,50.88
2022-12-19T20:24:00.669Z,55.47
2022-12-19T20:26:28.825Z,45.05
2022-12-19T20:28:56.143Z,55.75
2022-12-19T20:31:24.270Z,40.45
2022-12-19T20:33:55.542Z,48.65
2022-12-19T20:36:23.818Z,39.03
2022-12-19T20:38:51.747Z,42.58
2022-12-19T20:41:19.487Z,45.33
2022-12-19T20:43:48.198Z,55.17
2022-12-19T20:46:18.988Z,48.75
2022-12-19T20:48:47.902Z,40.05
2022-12-19T20:51:17.120Z,52.55
2022-12-19T20:53:45.554Z,44.05
2022-12-19T20:56:18.695Z,38.90
2022-12-19T20:58:46.863Z,56.85
2022-12-19T21:01:17.882Z,60.35
2022-12-19T21:03:47.019Z,51.45
2022-12-19T21:06:19.647Z,63.67
2022-12-19T21:08:47.511Z,57.38
2022-12-19T21:11:15.646Z,51.20
2022-12-19T21:13:45.351Z,52.25
2022-12-19T21:16:18.145Z,47.30
2022-12-19T21:18:47.643Z,51.63
2022-12-19T21:21:20.433Z,55.70
2022-12-19T21:23:48.840Z,57.40
2022-12-19T21:26:20.770Z,57.38
2022-12-19T21:28:48.377Z,61.25
2022-12-19T21:31:22.824Z,52.78
2022-12-19T21:33:51.113Z,65.50
2022-12-19T21:36:21.763Z,63.42
2022-12-19T21:38:53.102Z,60.70
2022-12-19T21:41:21.490Z,57.30
2022-12-19T21:43:52.300Z,65.15
2022-12-19T21:46:25.784Z,63.35
2022-12-19T21:48:55.682Z,59.90
2022-12-19T21:51:26.807Z,72.55
2022-12-19T21:54:02.453Z,56.90
2022-12-19T21:56:37.200Z,59.28
2022-12-19T21:59:10.005Z,52.80
2022-12-19T22:01:37.206Z,67.28
2022-12-19T22:04:15.453Z,66.63
2022-12-19T22:06:42.662Z,42.50
2022-12-19T22:09:16.536Z,60.75
2022-12-19T22:11:44.845Z,67.07
2022-12-19T22:14:16.868Z,55.90
2022-12-19T22:16:44.694Z,64.85
2022-12-19T22:19:17.786Z,62.53
2022-12-19T22:21:47.138Z,64.97
2022-12-19T22:24:16.879Z,54.63
2022-12-19T22:26:45.103Z,48.20
2022-12-19T22:29:16.903Z,56.55
2022-12-19T22:31:46.117Z,66.00
2022-12-19T22:34:20.435Z,60.08
2022-12-19T22:36:49.027Z,61.33
2022-12-19T22:39:19.874Z,51.88
2022-12-19T22:41:47.107Z,59.35
2022-12-19T22:44:20.890Z,55.05
2022-12-19T22:46:49.218Z,44.55
2022-12-19T22:49:17.669Z,53.53
2022-12-19T22:51:44.965Z,69.72
2022-12-19T22:54:13.632Z,62.20
2022-12-19T22:56:41.914Z,59.90
2022-12-19T22:59:12.147Z,54.88
2022-12-19T23:01:43.282Z,61.10
2022-12-19T23:04:15.579Z,63.92
2022-12-19T23:06:43.833Z,71.10
2022-12-19T23:09:20.418Z,66.43
2022-12-19T23:11:49.676Z,68.70
2022-12-19T23:14:22.696Z,58.05
2022-12-19T23:16:53.925Z,64.50
2022-12-19T23:19:37.151Z,66.93
2022-12-19T23:22:13.444Z,49.33
2022-12-19T23:26:32.501Z,65.50
2022-12-19T23:29:10.736Z,63.72
2022-12-19T23:31:42.300Z,62.17
2022-12-19T23:34:10.648Z,67.25
2022-12-19T23:37:09.807Z,69.10
2022-12-19T23:39:25.877Z,62.85
2022-12-19T23:41:56.328Z,58.22
2022-12-19T23:45:00.744Z,69.70
2022-12-19T23:47:28.017Z,63.33
2022-12-19T23:49:55.448Z,55.08
2022-12-19T23:52:22.554Z,67.15
2022-12-19T23:54:49.677Z,68.72
2022-12-19T23:57:17.324Z,64.75
2022-12-19T23:59:44.454Z,63.42
